Indian Wells, CA (92210)

1:24 AM PDT on June 25, 2017 (GMT -0700)
Harman's End | | Change Station
Active Advisory: Excessive Heat Warning

Elev 118 ft 33.71 °N, 116.33 °W | Updated 11 seconds ago

Clear
Clear
91.4 °F
Feels Like 90 °F
N
1.0
Wind Variable Wind from SE
Gusts 2.0 mph

Today
High -- | Low -- °F
--% Chance of Precip.
Yesterday
High -- | Low -- °F
Precip. -- in
Pressure 29.64 in
Visibility 10.0 miles
Clouds Clear
Heat Index 90 °F
Dew Point 57 °F
Humidity 31%
Rainfall 0.00 in
Snow Depth Not available.
5:36 AM 7:59 PM
New Moon, 2% visible
METAR KTRM 250752Z AUTO 32012KT 10SM CLR 38/10 A2962 RMK AO2 SLP035 T03780100 404720272
Pressure 29.64 in
Visibility 10.0 miles
Clouds Clear
Heat Index 90 °F
Dew Point 57 °F
Humidity 31%
Rainfall 0.00 in
Snow Depth Not available.
5:36 AM 7:59 PM
New Moon, 2% visible
METAR KTRM 250752Z AUTO 32012KT 10SM CLR 38/10 A2962 RMK AO2 SLP035 T03780100 404720272

Get Your Daily Forecast Email!

Thanks for signing up!

Be on the lookout for a verification email in your inbox.

You'll start receiving severe weather alerts in your inbox..

×

10-Day Weather Forecast

Almanac

Astronomy

Jun. 25, 2017 Rise Set
Actual Time
Civil Twilight
Nautical Twilight
Astronomical Twilight
Moon
Length of Visible Light
Length of Day
Tomorrow will be .
, % of the Moon is Illuminated

Today's Extremes

State Highs State Lows

Community

WunderPhotos

Category 6

Welcome to Category 6. This is the collective home for Weather Underground's featured writeups by Dr. Jeff Masters (right), Bob Henson (left), Chris Burt, and other regular contributors.

Nearby

Air Quality

  Air Quality AQ Index Pollutant
Not available.

Snow Depth

Station Depth Elevation

Earthquake Activity

City Distance Mag. Time & Date
Minimum magnitude displayed is 2.5.

Coastal Water Temperatures

Place Temperature

Stations

Nearby Weather Stations

Station Location Temp. Windchill Dew Point Humidity Wind Precip. Elev Updated Type
                   

Watches & Warnings

Excessive Heat Warning
Issued: 9:35 PM PDT Jun. 24, 2017 – National Weather Service

... Excessive heat warning remains in effect until 9 PM PDT
Monday...

* high temperatures... 113 to 120 through Sunday... then 109 to 115
Monday.

* Impacts... those working or spending time outdoors, the
elderly, children, and those unaccustomed to excessive heat
will be most susceptible to dangerous heat illness.

* Outlook... not as hot. High temperatures returning to near
average for Wednesday into next weekend.

Precautionary/preparedness actions...

Young children and pets should never be left unattended in
vehicles under any circumstances. This is especially true during
warm or hot weather when car interiors can reach lethal
temperatures in a matter of minutes.